Time;durP1;ratioP1;P1;durP2;ratioP2;P2;SDS_P1;SDS_P2;PMS_P1;PMS_P2;Temp;Humidity;BMP_temperature;BMP_pressure;BME280_temperature;BME280_humidity;BME280_pressure;Samples;Min_cycle;Max_cycle;Signal;HPM_P1;HPM_P2
2024/01/25 00:00:36;;;;;;;10.47;1.80;;;11.00;67.90;;;;;;5072531;28;20416;-75
2024/01/25 00:03:06;;;;;;;4.60;1.73;;;11.00;68.00;;;;;;5072466;28;20981;-74
2024/01/25 00:05:34;;;;;;;8.47;2.20;;;11.00;68.00;;;;;;5072754;28;20498;-75
2024/01/25 00:08:00;;;;;;;7.87;2.00;;;11.00;67.70;;;;;;5079369;28;20964;-75
2024/01/25 00:10:27;;;;;;;5.00;1.70;;;11.00;67.80;;;;;;5072687;28;20559;-75
2024/01/25 00:12:56;;;;;;;5.43;1.43;;;11.00;68.00;;;;;;5072556;28;20840;-75
2024/01/25 00:15:23;;;;;;;5.03;2.00;;;11.00;68.20;;;;;;5072593;28;20456;-75
2024/01/25 00:17:50;;;;;;;6.97;1.80;;;11.00;68.30;;;;;;5072249;28;21037;-75
2024/01/25 00:20:17;;;;;;;9.87;2.17;;;11.00;68.50;;;;;;5072742;28;20464;-75
2024/01/25 00:22:50;;;;;;;5.07;1.50;;;11.00;68.50;;;;;;5072656;28;20463;-75
2024/01/25 00:25:21;;;;;;;4.63;1.50;;;11.00;68.50;;;;;;5072628;28;20448;-75
2024/01/25 00:27:48;;;;;;;3.73;1.60;;;11.00;68.30;;;;;;5080267;28;20749;-75
2024/01/25 00:30:20;;;;;;;7.73;1.80;;;11.00;67.90;;;;;;5092419;28;20502;-75
2024/01/25 00:32:47;;;;;;;10.13;2.07;;;11.00;68.80;;;;;;5092908;28;20445;-75
2024/01/25 00:35:16;;;;;;;4.43;1.57;;;11.00;68.20;;;;;;5077725;28;20520;-75
2024/01/25 00:37:45;;;;;;;8.40;2.53;;;11.00;68.30;;;;;;5072246;28;20472;-76
2024/01/25 00:40:15;;;;;;;7.43;1.60;;;11.00;68.60;;;;;;5074684;28;20444;-75
2024/01/25 00:42:45;;;;;;;4.70;1.50;;;11.00;68.00;;;;;;5076194;28;20503;-75
2024/01/25 00:45:18;;;;;;;5.97;2.27;;;11.00;68.10;;;;;;5076414;28;20949;-73
2024/01/25 00:47:46;;;;;;;5.28;1.65;;;10.90;68.00;;;;;;5084042;28;20451;-75
2024/01/25 00:50:17;;;;;;;5.40;1.70;;;11.00;68.00;;;;;;5096544;28;20296;-75
2024/01/25 00:52:44;;;;;;;8.13;1.80;;;10.90;67.90;;;;;;5096806;28;20416;-75
2024/01/25 00:55:14;;;;;;;4.47;1.63;;;10.90;66.80;;;;;;5097166;28;20810;-76
2024/01/25 00:57:42;;;;;;;10.82;2.20;;;10.90;65.90;;;;;;5078069;28;20185;-74
2024/01/25 01:00:12;;;;;;;3.77;1.10;;;11.00;64.10;;;;;;5076209;28;20194;-75
2024/01/25 01:02:45;;;;;;;6.27;1.83;;;10.90;63.30;;;;;;5076582;28;20532;-75
2024/01/25 01:05:14;;;;;;;5.10;1.88;;;10.90;61.90;;;;;;5075944;28;20420;-75
2024/01/25 01:07:42;;;;;;;7.17;1.50;;;10.90;61.50;;;;;;5076464;28;20189;-75
2024/01/25 01:10:09;;;;;;;9.65;2.03;;;10.90;62.00;;;;;;5076075;28;20512;-75
2024/01/25 01:12:37;;;;;;;5.35;1.45;;;10.80;62.90;;;;;;5076128;28;20330;-75
2024/01/25 01:15:05;;;;;;;7.40;2.40;;;10.80;63.70;;;;;;5076070;28;20193;-75
2024/01/25 01:17:32;;;;;;;3.92;1.58;;;10.80;64.20;;;;;;5089544;28;20454;-75
2024/01/25 01:20:01;;;;;;;7.03;1.77;;;10.80;65.40;;;;;;5096835;28;20193;-75
2024/01/25 01:22:28;;;;;;;10.00;2.47;;;10.80;65.80;;;;;;5096556;28;20220;-75
2024/01/25 01:24:55;;;;;;;6.10;2.00;;;10.80;66.70;;;;;;5096183;28;20474;-74
2024/01/25 01:27:27;;;;;;;5.55;1.45;;;10.80;66.90;;;;;;5096448;28;20427;-75
2024/01/25 01:30:04;;;;;;;7.28;1.33;;;10.80;66.90;;;;;;5096063;28;20219;-75
2024/01/25 01:32:32;;;;;;;4.05;1.60;;;10.80;67.20;;;;;;5056305;28;20545;-75
2024/01/25 01:35:00;;;;;;;7.78;1.45;;;10.80;66.90;;;;;;5056064;28;20190;-75
2024/01/25 01:37:27;;;;;;;7.10;1.57;;;10.80;67.20;;;;;;5055688;28;20194;-75
2024/01/25 01:39:55;;;;;;;7.50;1.50;;;10.80;67.20;;;;;;5056999;28;20528;-74
2024/01/25 01:42:23;;;;;;;6.33;2.20;;;10.70;67.20;;;;;;5096023;28;20220;-74
2024/01/25 01:44:51;;;;;;;4.43;1.60;;;10.80;67.10;;;;;;5095805;28;20439;-75
2024/01/25 01:47:20;;;;;;;5.53;1.20;;;10.80;67.70;;;;;;5077470;28;20512;-75
2024/01/25 01:49:50;;;;;;;9.48;2.00;;;10.80;68.30;;;;;;5075317;28;20475;-75
2024/01/25 01:52:19;;;;;;;6.70;1.93;;;10.80;69.30;;;;;;5074704;28;20178;-75
2024/01/25 01:54:48;;;;;;;7.10;1.87;;;10.80;70.20;;;;;;5075304;28;20467;-75
2024/01/25 01:57:21;;;;;;;7.07;1.67;;;10.80;70.60;;;;;;5075584;28;20436;-75
2024/01/25 01:59:50;;;;;;;5.50;1.40;;;10.70;71.20;;;;;;5075644;28;20190;-75
2024/01/25 02:02:17;;;;;;;3.85;1.20;;;10.80;71.60;;;;;;5086886;28;20431;-75
2024/01/25 02:04:49;;;;;;;7.40;2.93;;;10.70;70.10;;;;;;5095757;28;20242;-75
2024/01/25 02:07:18;;;;;;;6.07;1.50;;;10.70;70.50;;;;;;5095434;28;20415;-75
2024/01/25 02:09:46;;;;;;;4.10;1.40;;;10.60;71.00;;;;;;5095227;28;20474;-74
2024/01/25 02:12:17;;;;;;;3.07;1.50;;;10.60;71.50;;;;;;5075134;28;20437;-75
2024/01/25 02:14:45;;;;;;;3.80;1.23;;;10.60;71.90;;;;;;5075423;28;20451;-75
2024/01/25 02:17:12;;;;;;;2.93;1.60;;;10.60;70.90;;;;;;5074962;28;20812;-76
2024/01/25 02:19:39;;;;;;;4.22;1.45;;;10.60;70.80;;;;;;5075032;28;20428;-75
2024/01/25 02:22:06;;;;;;;6.67;1.80;;;10.60;71.30;;;;;;5074850;28;20243;-75
2024/01/25 02:24:35;;;;;;;5.87;2.07;;;10.50;72.00;;;;;;5074687;28;20497;-75
2024/01/25 02:27:05;;;;;;;8.63;1.75;;;10.50;73.20;;;;;;5074748;28;20443;-76
2024/01/25 02:29:33;;;;;;;7.60;1.80;;;10.50;73.60;;;;;;5075304;28;20195;-75
2024/01/25 02:32:01;;;;;;;8.95;1.92;;;10.50;74.10;;;;;;5087967;28;20431;-76
2024/01/25 02:34:30;;;;;;;7.03;1.63;;;10.50;74.30;;;;;;5094793;28;20191;-76
2024/01/25 02:36:59;;;;;;;5.03;1.60;;;10.50;74.40;;;;;;5094800;28;20444;-76
2024/01/25 02:39:32;;;;;;;9.45;1.50;;;10.50;74.80;;;;;;5094757;28;20653;-76
2024/01/25 02:42:04;;;;;;;3.25;1.30;;;10.50;75.60;;;;;;5094781;28;20272;-76
2024/01/25 02:44:31;;;;;;;8.68;2.38;;;10.50;75.80;;;;;;5095187;28;20189;-77
2024/01/25 02:46:58;;;;;;;7.20;1.85;;;10.50;76.60;;;;;;5078708;28;20240;-76
2024/01/25 02:49:26;;;;;;;5.73;1.67;;;10.50;77.10;;;;;;5074276;28;20713;-77
2024/01/25 02:51:53;;;;;;;4.38;2.05;;;10.40;77.50;;;;;;5074717;28;20487;-76
2024/01/25 02:54:20;;;;;;;3.47;1.25;;;10.50;78.30;;;;;;5073864;28;20185;-75
2024/01/25 02:56:52;;;;;;;7.03;1.73;;;10.50;78.00;;;;;;5074557;28;20254;-76
2024/01/25 02:59:43;;;;;;;3.25;1.45;;;10.50;76.80;;;;;;5074275;28;20428;-76
2024/01/25 03:02:11;;;;;;;3.03;1.63;;;10.50;76.70;;;;;;5074287;28;20225;-76
2024/01/25 03:04:38;;;;;;;5.10;1.45;;;10.50;76.20;;;;;;5074218;28;20273;-77
2024/01/25 03:07:06;;;;;;;5.07;1.58;;;10.40;77.00;;;;;;5074362;28;20190;-76
2024/01/25 03:09:33;;;;;;;4.03;1.60;;;10.40;77.80;;;;;;5074152;28;20190;-76
2024/01/25 03:12:00;;;;;;;6.30;1.90;;;10.40;78.60;;;;;;5073826;28;20193;-76
2024/01/25 03:14:29;;;;;;;4.40;1.50;;;10.30;79.30;;;;;;5074276;28;20443;-77
2024/01/25 03:16:56;;;;;;;4.85;1.63;;;10.30;80.40;;;;;;5073608;28;20464;-76
2024/01/25 03:19:26;;;;;;;7.10;1.15;;;10.30;81.10;;;;;;5082194;28;20182;-77
2024/01/25 03:21:54;;;;;;;3.25;1.13;;;10.20;81.80;;;;;;5094367;28;20224;-77
2024/01/25 03:24:22;;;;;;;9.73;2.08;;;10.20;83.40;;;;;;5094019;28;20268;-76
2024/01/25 03:26:49;;;;;;;9.98;1.48;;;10.30;83.40;;;;;;5094141;28;20193;-76
2024/01/25 03:29:16;;;;;;;2.80;1.40;;;10.30;83.50;;;;;;5093823;28;20277;-77
2024/01/25 03:31:45;;;;;;;3.60;1.53;;;10.30;83.70;;;;;;5093161;28;20209;-77
2024/01/25 03:34:12;;;;;;;3.50;1.50;;;10.30;84.10;;;;;;5094031;28;20462;-76
2024/01/25 03:36:40;;;;;;;5.40;1.60;;;10.30;82.90;;;;;;5093704;28;20192;-77
2024/01/25 03:39:08;;;;;;;5.05;1.35;;;10.30;82.10;;;;;;5093807;28;20435;-76
2024/01/25 03:41:35;;;;;;;2.83;1.33;;;10.30;82.10;;;;;;5093992;28;20246;-76
2024/01/25 03:44:03;;;;;;;3.63;1.43;;;10.30;82.00;;;;;;5086800;28;20178;-76
2024/01/25 03:46:29;;;;;;;4.65;1.58;;;10.30;82.10;;;;;;5093532;28;20439;-77
2024/01/25 03:48:58;;;;;;;5.32;1.60;;;10.30;82.60;;;;;;5093971;28;20203;-77
2024/01/25 03:51:26;;;;;;;10.13;1.83;;;10.30;82.80;;;;;;5093498;28;20213;-76
2024/01/25 03:53:55;;;;;;;7.95;2.00;;;10.30;82.90;;;;;;5093477;28;20706;-77
2024/01/25 03:56:22;;;;;;;4.43;1.13;;;10.30;83.00;;;;;;5093499;28;20200;-77
2024/01/25 03:58:50;;;;;;;2.83;1.43;;;10.30;83.30;;;;;;5083084;28;20659;-77
2024/01/25 04:01:17;;;;;;;5.87;1.30;;;10.30;83.10;;;;;;5084991;28;20482;-76
2024/01/25 04:03:44;;;;;;;4.75;1.30;;;10.30;83.40;;;;;;5093415;28;20432;-76
2024/01/25 04:06:16;;;;;;;4.87;1.70;;;10.40;83.80;;;;;;5093424;28;20276;-76
2024/01/25 04:08:43;;;;;;;3.42;1.50;;;10.40;83.80;;;;;;5089555;28;20432;-76
2024/01/25 04:11:11;;;;;;;4.40;1.33;;;10.40;84.20;;;;;;5073540;28;20201;-76
2024/01/25 04:13:38;;;;;;;5.90;1.35;;;10.30;84.60;;;;;;5073068;28;20190;-77
2024/01/25 04:16:06;;;;;;;3.30;1.45;;;10.30;84.90;;;;;;5072942;28;20190;-77
2024/01/25 04:18:33;;;;;;;7.57;1.97;;;10.30;85.20;;;;;;5072994;28;20241;-76
2024/01/25 04:21:02;;;;;;;6.53;1.30;;;10.40;85.60;;;;;;5073122;28;20444;-77
2024/01/25 04:23:32;;;;;;;4.25;1.90;;;10.30;85.90;;;;;;5072892;28;20487;-76
2024/01/25 04:25:59;;;;;;;6.60;2.00;;;10.40;85.90;;;;;;5072864;28;20221;-76
2024/01/25 04:28:26;;;;;;;4.18;3.10;;;10.30;86.10;;;;;;5073317;28;20528;-77
2024/01/25 04:30:53;;;;;;;3.87;1.30;;;10.30;86.70;;;;;;5072974;28;20210;-76
2024/01/25 04:33:20;;;;;;;5.67;1.47;;;10.30;86.70;;;;;;5072943;28;20435;-77
2024/01/25 04:35:48;;;;;;;6.05;1.60;;;10.30;86.90;;;;;;5073279;28;20749;-76
2024/01/25 04:38:15;;;;;;;6.45;1.40;;;10.40;86.40;;;;;;5075325;28;20273;-76
2024/01/25 04:40:48;;;;;;;4.72;1.48;;;10.30;86.20;;;;;;5093412;28;20228;-77
2024/01/25 04:43:15;;;;;;;5.90;1.42;;;10.40;86.30;;;;;;5092943;28;20180;-76
2024/01/25 04:45:42;;;;;;;3.97;1.17;;;10.30;86.20;;;;;;5093064;28;20182;-76
2024/01/25 04:48:10;;;;;;;2.55;1.00;;;10.40;85.80;;;;;;5093353;28;20511;-77
2024/01/25 04:50:39;;;;;;;3.70;1.90;;;10.30;85.20;;;;;;5092824;28;20217;-76
2024/01/25 04:53:06;;;;;;;3.38;1.33;;;10.30;85.00;;;;;;5087403;28;20197;-77
2024/01/25 04:55:33;;;;;;;3.58;1.35;;;10.30;85.40;;;;;;5072713;28;20197;-77
2024/01/25 04:58:02;;;;;;;3.85;1.20;;;10.30;85.20;;;;;;5072227;28;20179;-76
2024/01/25 05:00:29;;;;;;;3.15;1.15;;;10.30;85.00;;;;;;5072144;28;20186;-77
2024/01/25 05:02:57;;;;;;;4.65;1.63;;;10.20;84.80;;;;;;5090778;28;20515;-75
2024/01/25 05:05:24;;;;;;;6.43;2.03;;;10.20;84.90;;;;;;5093156;28;20185;-77
2024/01/25 05:07:51;;;;;;;3.67;1.20;;;10.20;85.20;;;;;;5090855;28;20658;-76
2024/01/25 05:10:18;;;;;;;3.60;1.20;;;10.20;85.20;;;;;;5093078;28;20435;-76
2024/01/25 05:12:46;;;;;;;3.05;1.58;;;10.20;85.40;;;;;;5092850;28;20190;-76
2024/01/25 05:15:18;;;;;;;3.53;1.20;;;10.20;85.20;;;;;;5093164;28;20182;-76
2024/01/25 05:17:45;;;;;;;5.80;1.67;;;10.20;85.20;;;;;;5092885;28;20249;-76
2024/01/25 05:20:15;;;;;;;2.70;1.10;;;10.20;85.30;;;;;;5092825;28;20446;-77
2024/01/25 05:22:45;;;;;;;5.15;1.80;;;10.10;85.50;;;;;;5072611;28;20194;-76
2024/01/25 05:25:13;;;;;;;4.38;1.75;;;10.10;85.80;;;;;;5072682;28;20212;-76
2024/01/25 05:27:40;;;;;;;4.35;1.15;;;10.10;85.70;;;;;;5075417;28;20196;-77
2024/01/25 05:30:10;;;;;;;2.72;1.30;;;10.10;85.80;;;;;;5076025;28;20194;-76
2024/01/25 05:32:40;;;;;;;6.57;1.60;;;10.10;85.50;;;;;;5076713;28;20227;-75
2024/01/25 05:35:09;;;;;;;4.82;1.55;;;10.10;85.20;;;;;;5075844;28;20228;-76
2024/01/25 05:37:36;;;;;;;6.53;1.65;;;10.10;84.30;;;;;;5075808;28;20193;-76
2024/01/25 05:40:09;;;;;;;6.47;0.97;;;10.10;84.70;;;;;;5075625;28;20636;-75
2024/01/25 05:42:36;;;;;;;4.05;1.10;;;10.10;84.90;;;;;;5076194;28;20464;-75
2024/01/25 05:45:06;;;;;;;4.18;1.10;;;10.00;85.20;;;;;;5084417;28;20623;-76
2024/01/25 05:47:34;;;;;;;5.20;1.23;;;10.10;85.50;;;;;;5095926;28;20193;-75
2024/01/25 05:50:04;;;;;;;6.05;1.58;;;10.10;85.50;;;;;;5096338;28;20477;-76
2024/01/25 05:52:32;;;;;;;4.60;1.35;;;10.10;85.30;;;;;;5096026;28;20205;-76
2024/01/25 05:54:59;;;;;;;7.97;3.10;;;10.10;85.50;;;;;;5084256;28;20186;-76
2024/01/25 05:57:31;;;;;;;6.53;2.13;;;10.10;85.50;;;;;;5075160;28;20198;-75
2024/01/25 05:59:59;;;;;;;3.15;1.35;;;10.10;85.50;;;;;;5074868;28;20192;-76
2024/01/25 06:02:30;;;;;;;3.55;1.15;;;10.10;85.80;;;;;;5075687;28;20193;-76
2024/01/25 06:04:58;;;;;;;2.65;1.13;;;10.10;86.00;;;;;;5076511;28;20264;-76
2024/01/25 06:07:27;;;;;;;4.70;1.87;;;10.10;85.80;;;;;;5076140;28;20769;-76
2024/01/25 06:09:54;;;;;;;3.25;1.17;;;10.10;85.90;;;;;;5075529;28;20444;-76
2024/01/25 06:12:27;;;;;;;5.35;1.60;;;10.10;86.00;;;;;;5075174;28;20686;-76
2024/01/25 06:14:55;;;;;;;3.30;1.75;;;10.10;85.80;;;;;;5075182;28;20186;-76
2024/01/25 06:17:22;;;;;;;5.50;1.42;;;10.20;85.70;;;;;;5074950;28;20260;-76
2024/01/25 06:19:49;;;;;;;6.72;1.52;;;10.20;85.80;;;;;;5075159;28;20633;-76
2024/01/25 06:22:17;;;;;;;2.90;1.30;;;10.20;85.80;;;;;;5077050;28;20248;-76
2024/01/25 06:24:47;;;;;;;4.88;1.80;;;10.20;86.00;;;;;;5073715;28;20182;-76
2024/01/25 06:27:14;;;;;;;3.72;1.38;;;10.20;86.10;;;;;;5074017;28;20185;-76
2024/01/25 06:29:41;;;;;;;3.40;1.88;;;10.20;85.80;;;;;;5071652;28;20178;-76
2024/01/25 06:32:08;;;;;;;3.25;1.55;;;10.20;85.90;;;;;;5073605;28;20297;-75
2024/01/25 06:34:35;;;;;;;4.85;3.03;;;10.20;86.20;;;;;;5074804;28;20527;-76
2024/01/25 06:37:02;;;;;;;3.40;1.23;;;10.20;86.20;;;;;;5082062;28;20243;-76
2024/01/25 06:39:29;;;;;;;2.80;1.20;;;10.20;86.30;;;;;;5089090;28;20190;-76
2024/01/25 06:41:57;;;;;;;5.60;1.80;;;10.20;86.00;;;;;;5073990;28;20199;-76
2024/01/25 06:44:25;;;;;;;3.60;1.53;;;10.20;86.20;;;;;;5073620;28;20244;-76
2024/01/25 06:46:52;;;;;;;4.53;1.75;;;10.20;86.20;;;;;;5073532;28;20462;-76
2024/01/25 06:49:19;;;;;;;4.15;1.30;;;10.20;85.90;;;;;;5073682;28;20185;-76
2024/01/25 06:51:46;;;;;;;3.50;1.80;;;10.20;85.90;;;;;;5073442;28;20242;-76
2024/01/25 06:54:13;;;;;;;4.25;1.92;;;10.20;86.10;;;;;;5073650;28;20269;-76
2024/01/25 06:56:39;;;;;;;4.25;1.40;;;10.20;86.20;;;;;;5077218;28;20665;-75
2024/01/25 06:59:08;;;;;;;3.33;1.20;;;10.20;86.30;;;;;;5091796;28;20267;-76
2024/01/25 07:01:35;;;;;;;6.47;2.25;;;10.20;86.30;;;;;;5092638;28;20262;-75
2024/01/25 07:04:03;;;;;;;6.82;1.65;;;10.20;86.10;;;;;;5084951;28;20585;-75
2024/01/25 07:06:30;;;;;;;3.08;1.48;;;10.20;86.00;;;;;;5072960;28;20197;-75
2024/01/25 07:08:57;;;;;;;5.55;1.50;;;10.20;85.90;;;;;;5076510;28;20206;-76
2024/01/25 07:11:24;;;;;;;3.08;1.45;;;10.20;85.90;;;;;;5093221;28;20297;-76
2024/01/25 07:13:51;;;;;;;5.55;1.55;;;10.20;85.80;;;;;;5092279;28;20260;-76
2024/01/25 07:16:20;;;;;;;4.65;1.48;;;10.20;85.60;;;;;;5074579;28;20277;-76
2024/01/25 07:18:48;;;;;;;2.95;1.17;;;10.20;85.30;;;;;;5073713;28;20213;-76
2024/01/25 07:21:14;;;;;;;8.77;1.55;;;10.20;85.30;;;;;;5093109;28;20193;-75
2024/01/25 07:23:41;;;;;;;3.85;1.85;;;10.10;85.20;;;;;;5093216;28;20276;-76
2024/01/25 07:26:08;;;;;;;2.75;1.60;;;10.20;85.00;;;;;;5093879;28;20280;-76
2024/01/25 07:28:35;;;;;;;2.88;0.98;;;10.20;84.70;;;;;;5093607;28;20600;-76
2024/01/25 07:31:02;;;;;;;3.03;1.20;;;10.10;84.70;;;;;;5093269;28;20273;-75
2024/01/25 07:33:30;;;;;;;2.92;1.17;;;10.10;84.20;;;;;;5093210;28;20277;-76
2024/01/25 07:35:58;;;;;;;3.92;1.25;;;10.10;84.30;;;;;;5093186;28;20280;-76
2024/01/25 07:38:25;;;;;;;4.10;1.45;;;10.10;84.10;;;;;;5093343;28;20181;-76
2024/01/25 07:40:52;;;;;;;2.60;1.45;;;10.10;83.90;;;;;;5093314;28;20213;-75
2024/01/25 07:43:21;;;;;;;4.95;1.80;;;10.10;83.80;;;;;;5093352;28;20185;-76
2024/01/25 07:45:48;;;;;;;4.47;1.38;;;10.10;84.00;;;;;;5093043;28;20232;-76
2024/01/25 07:48:14;;;;;;;3.53;1.52;;;10.10;83.80;;;;;;5092930;28;20185;-76
2024/01/25 07:50:43;;;;;;;3.45;1.20;;;10.10;83.20;;;;;;5092476;28;20272;-75
2024/01/25 07:53:12;;;;;;;3.72;1.55;;;10.10;82.40;;;;;;5093235;28;20626;-76
2024/01/25 07:55:39;;;;;;;4.05;1.25;;;10.10;82.20;;;;;;5093252;28;20194;-76
2024/01/25 07:58:06;;;;;;;4.47;0.90;;;10.10;81.60;;;;;;5092733;28;20217;-76
2024/01/25 08:00:33;;;;;;;2.83;1.15;;;10.10;81.20;;;;;;5093094;28;20224;-76
2024/01/25 08:03:00;;;;;;;3.45;1.17;;;10.10;80.80;;;;;;5092676;28;20284;-76
2024/01/25 08:05:26;;;;;;;3.20;1.17;;;10.10;80.80;;;;;;5093092;28;20231;-75
2024/01/25 08:07:55;;;;;;;5.20;1.30;;;10.10;81.20;;;;;;5092986;28;20268;-76
2024/01/25 08:10:22;;;;;;;2.75;1.27;;;10.20;81.80;;;;;;5092966;28;20288;-76
2024/01/25 08:12:48;;;;;;;2.22;1.08;;;10.20;81.80;;;;;;5092621;28;20245;-76
2024/01/25 08:15:15;;;;;;;2.85;1.30;;;10.20;80.90;;;;;;5092985;28;20281;-76
2024/01/25 08:17:42;;;;;;;4.25;1.33;;;10.30;80.50;;;;;;5092438;28;20299;-75
2024/01/25 08:20:13;;;;;;;2.53;1.20;;;10.30;80.00;;;;;;5092853;28;20273;-76
2024/01/25 08:22:43;;;;;;;10.25;4.45;;;10.30;80.40;;;;;;5092585;28;20189;-76
2024/01/25 08:25:13;;;;;;;3.45;1.10;;;10.40;80.80;;;;;;5092672;28;20791;-75
2024/01/25 08:27:43;;;;;;;4.13;1.43;;;10.50;80.60;;;;;;5092833;28;20281;-76
2024/01/25 08:30:11;;;;;;;2.75;1.30;;;10.50;80.40;;;;;;5092833;28;20514;-76
2024/01/25 08:32:38;;;;;;;2.00;1.10;;;10.60;80.40;;;;;;5092601;28;20616;-74
2024/01/25 08:35:06;;;;;;;2.70;1.35;;;10.60;80.20;;;;;;5092669;28;20833;-75
2024/01/25 08:37:33;;;;;;;4.47;1.40;;;10.70;79.80;;;;;;5092073;28;20285;-76
2024/01/25 08:40:00;;;;;;;3.78;1.20;;;10.80;79.40;;;;;;5092752;28;20606;-76
2024/01/25 08:42:28;;;;;;;4.57;1.70;;;10.80;79.20;;;;;;5092363;28;20276;-75
2024/01/25 08:44:55;;;;;;;5.60;2.10;;;10.90;78.10;;;;;;5092654;28;20432;-76
2024/01/25 08:47:22;;;;;;;6.80;1.10;;;11.00;77.30;;;;;;5092662;28;20470;-76
2024/01/25 08:49:49;;;;;;;2.97;1.33;;;11.00;76.90;;;;;;5092282;28;20980;-75
2024/01/25 08:52:16;;;;;;;3.83;1.40;;;11.00;76.40;;;;;;5092474;28;20301;-75
2024/01/25 08:54:43;;;;;;;2.83;1.40;;;11.00;76.10;;;;;;5092660;28;20518;-76
2024/01/25 08:57:10;;;;;;;3.57;1.40;;;11.00;76.90;;;;;;5092289;28;20612;-75
2024/01/25 08:59:38;;;;;;;3.80;1.50;;;10.90;76.80;;;;;;5092685;28;20843;-76
2024/01/25 09:02:06;;;;;;;3.60;1.40;;;10.90;77.20;;;;;;5096064;28;20603;-76
2024/01/25 09:04:33;;;;;;;2.77;1.50;;;10.90;76.70;;;;;;5096328;28;20466;-75
2024/01/25 09:07:00;;;;;;;3.07;1.17;;;10.90;76.90;;;;;;5096349;28;20482;-76
2024/01/25 09:09:27;;;;;;;3.43;1.80;;;10.90;76.60;;;;;;5096313;28;20427;-76
2024/01/25 09:11:54;;;;;;;2.87;1.00;;;10.90;75.40;;;;;;5096084;28;20455;-75
2024/01/25 09:14:22;;;;;;;8.40;1.90;;;10.90;76.10;;;;;;5096424;28;20443;-76
2024/01/25 09:16:51;;;;;;;7.22;1.48;;;10.90;76.70;;;;;;5095667;28;20994;-76
2024/01/25 09:19:18;;;;;;;4.37;2.00;;;10.90;77.00;;;;;;5095895;28;20177;-75
2024/01/25 09:21:45;;;;;;;3.77;1.63;;;11.10;77.30;;;;;;5095898;28;20545;-76
2024/01/25 09:24:13;;;;;;;31.63;17.70;;;11.40;77.90;;;;;;5096084;28;20533;-75
2024/01/25 09:26:40;;;;;;;35.50;18.00;;;11.70;76.70;;;;;;5095961;28;20492;-75
2024/01/25 09:29:07;;;;;;;16.93;8.80;;;11.90;74.80;;;;;;5095639;28;20519;-76
2024/01/25 09:31:33;;;;;;;9.13;4.13;;;12.10;74.70;;;;;;5095581;28;20523;-76
2024/01/25 09:34:02;;;;;;;3.33;1.40;;;12.10;72.00;;;;;;5095759;28;20500;-75
2024/01/25 09:36:29;;;;;;;5.63;1.70;;;12.30;73.30;;;;;;5095390;28;20492;-75
2024/01/25 09:38:56;;;;;;;6.70;4.03;;;12.80;73.80;;;;;;5095649;28;20466;-76
2024/01/25 09:41:23;;;;;;;2.67;1.47;;;13.40;71.60;;;;;;5095464;28;20510;-75
2024/01/25 09:43:50;;;;;;;6.30;4.00;;;14.10;67.70;;;;;;5095697;28;20445;-76
2024/01/25 09:46:17;;;;;;;13.67;8.40;;;14.80;64.70;;;;;;5095509;28;20534;-76
2024/01/25 09:48:46;;;;;;;9.53;5.67;;;15.40;62.00;;;;;;5095222;28;20526;-76
2024/01/25 09:51:14;;;;;;;4.87;2.47;;;15.90;58.90;;;;;;5095411;28;20488;-75
2024/01/25 09:53:41;;;;;;;6.43;2.67;;;16.20;58.00;;;;;;5095413;28;20503;-76
2024/01/25 09:56:09;;;;;;;6.30;3.17;;;16.60;57.50;;;;;;5095498;28;20433;-76
2024/01/25 09:58:41;;;;;;;11.50;7.23;;;17.10;57.60;;;;;;5094959;28;20906;-75
2024/01/25 10:01:12;;;;;;;5.00;2.80;;;17.50;55.60;;;;;;5095322;28;20508;-76
2024/01/25 10:03:40;;;;;;;7.83;2.50;;;17.60;54.00;;;;;;5095171;28;20975;-76
2024/01/25 10:06:08;;;;;;;5.23;2.30;;;17.40;52.70;;;;;;5095277;28;20508;-75
2024/01/25 10:08:36;;;;;;;10.93;6.30;;;17.60;52.30;;;;;;5095087;28;20434;-75
2024/01/25 10:11:03;;;;;;;4.37;1.80;;;17.80;52.10;;;;;;5095187;28;20444;-76
2024/01/25 10:13:30;;;;;;;5.63;2.80;;;18.00;51.30;;;;;;5093833;28;20466;-75
2024/01/25 10:15:58;;;;;;;8.90;4.13;;;18.30;50.20;;;;;;5094902;28;20514;-75
2024/01/25 10:18:26;;;;;;;4.30;2.00;;;18.30;48.80;;;;;;5094886;28;20926;-75
2024/01/25 10:20:54;;;;;;;17.90;7.13;;;18.30;49.80;;;;;;5094900;28;20470;-75
2024/01/25 10:23:22;;;;;;;3.60;2.00;;;18.40;49.70;;;;;;5094773;28;20521;-75
2024/01/25 10:25:50;;;;;;;5.40;2.00;;;18.20;47.70;;;;;;5094704;28;20521;-74
2024/01/25 10:28:17;;;;;;;5.83;3.43;;;18.30;48.20;;;;;;5094841;28;20521;-76
2024/01/25 10:30:44;;;;;;;2.87;1.10;;;18.70;48.40;;;;;;5094763;28;20438;-75
2024/01/25 10:33:12;;;;;;;7.57;4.10;;;18.80;47.10;;;;;;5094300;28;20464;-75
2024/01/25 10:35:41;;;;;;;13.00;4.63;;;19.20;47.90;;;;;;5094821;28;20464;-75
2024/01/25 10:38:08;;;;;;;3.00;1.00;;;19.60;46.60;;;;;;5094639;28;20475;-75
2024/01/25 10:40:36;;;;;;;8.07;3.80;;;19.60;46.50;;;;;;5094230;28;20471;-75
2024/01/25 10:43:05;;;;;;;5.77;1.67;;;19.40;46.00;;;;;;5094271;28;20482;-75
2024/01/25 10:45:32;;;;;;;3.70;1.57;;;19.10;45.60;;;;;;5094406;28;20664;-75
2024/01/25 10:48:00;;;;;;;6.33;1.80;;;19.20;44.60;;;;;;5094419;28;20479;-75
2024/01/25 10:50:27;;;;;;;3.60;1.10;;;19.40;43.90;;;;;;5094013;28;20472;-74
2024/01/25 10:52:54;;;;;;;7.43;3.70;;;19.70;44.10;;;;;;5094108;28;20550;-74
2024/01/25 10:55:22;;;;;;;4.23;2.20;;;20.00;43.00;;;;;;5093932;28;20517;-75
2024/01/25 10:57:49;;;;;;;7.90;4.60;;;20.30;42.20;;;;;;5094148;28;20858;-74
2024/01/25 11:00:17;;;;;;;7.37;3.90;;;20.60;41.90;;;;;;5094126;28;20467;-75
2024/01/25 11:02:46;;;;;;;7.40;5.37;;;20.70;40.10;;;;;;5093514;28;20472;-74
2024/01/25 11:05:17;;;;;;;3.97;1.03;;;20.60;39.50;;;;;;5093933;28;20431;-75
2024/01/25 11:07:45;;;;;;;2.77;0.97;;;20.20;40.60;;;;;;5093866;28;20419;-75
2024/01/25 11:10:16;;;;;;;5.47;2.10;;;20.20;40.00;;;;;;5093549;28;20474;-74
2024/01/25 11:12:51;;;;;;;4.67;1.23;;;20.00;39.70;;;;;;5093541;28;20466;-75
2024/01/25 11:15:31;;;;;;;2.80;0.90;;;20.10;40.80;;;;;;5093732;28;20434;-75
2024/01/25 11:17:59;;;;;;;4.43;1.33;;;20.00;40.20;;;;;;5093557;28;20495;-74
2024/01/25 11:20:27;;;;;;;3.93;1.00;;;19.90;39.60;;;;;;5093648;28;20462;-75
2024/01/25 11:22:57;;;;;;;3.80;1.30;;;19.50;39.60;;;;;;5093513;28;20439;-75
2024/01/25 11:25:27;;;;;;;3.03;1.10;;;19.50;40.50;;;;;;5093683;28;20424;-75
2024/01/25 11:27:57;;;;;;;3.10;1.10;;;19.70;39.60;;;;;;5093633;28;20510;-75
2024/01/25 11:30:26;;;;;;;3.07;0.90;;;20.10;39.30;;;;;;5093228;28;20470;-73
2024/01/25 11:32:53;;;;;;;3.63;0.77;;;20.40;38.70;;;;;;5093539;28;20510;-75
2024/01/25 11:35:20;;;;;;;2.93;1.07;;;20.40;38.20;;;;;;5093463;28;20912;-74
2024/01/25 11:37:48;;;;;;;2.33;0.70;;;20.30;38.40;;;;;;5093588;28;20530;-74
2024/01/25 11:40:16;;;;;;;3.60;1.27;;;20.10;38.20;;;;;;5093474;28;20514;-75
2024/01/25 11:42:44;;;;;;;2.17;0.77;;;20.00;38.70;;;;;;5093361;28;20478;-73
2024/01/25 11:45:13;;;;;;;2.60;0.90;;;19.70;38.80;;;;;;5093152;28;20463;-75
2024/01/25 11:47:43;;;;;;;2.63;0.73;;;19.40;39.90;;;;;;5093175;28;20487;-74
2024/01/25 11:50:12;;;;;;;3.13;1.30;;;19.30;40.70;;;;;;5092947;28;20462;-75
2024/01/25 11:52:39;;;;;;;2.67;0.70;;;19.60;41.40;;;;;;5091888;28;20561;-75
2024/01/25 11:55:10;;;;;;;1.90;0.60;;;19.70;40.00;;;;;;5093035;28;20442;-74
2024/01/25 11:57:40;;;;;;;2.10;0.67;;;19.40;39.50;;;;;;5093170;28;20772;-74
2024/01/25 12:00:10;;;;;;;1.90;0.70;;;19.00;39.80;;;;;;5092769;28;20423;-74
2024/01/25 12:02:37;;;;;;;2.17;0.70;;;18.60;40.30;;;;;;5092574;28;20932;-74
2024/01/25 12:05:07;;;;;;;2.37;0.70;;;18.10;41.20;;;;;;5092958;28;20491;-74
2024/01/25 12:07:40;;;;;;;2.27;0.73;;;17.80;41.90;;;;;;5092524;28;20496;-75
2024/01/25 12:10:09;;;;;;;3.73;0.80;;;17.50;42.10;;;;;;5092734;28;20757;-74
2024/01/25 12:12:37;;;;;;;2.40;0.90;;;17.30;42.60;;;;;;5092768;28;20520;-74
2024/01/25 12:15:07;;;;;;;1.80;0.60;;;17.20;43.90;;;;;;5092887;28;20438;-74
2024/01/25 12:17:36;;;;;;;4.83;0.93;;;17.40;43.90;;;;;;5092730;28;20554;-75
2024/01/25 12:20:10;;;;;;;1.80;0.70;;;17.80;44.60;;;;;;5092581;28;20431;-74
2024/01/25 12:22:37;;;;;;;1.90;0.60;;;18.30;44.50;;;;;;5092955;28;20418;-74
2024/01/25 12:25:09;;;;;;;3.37;0.67;;;18.70;43.30;;;;;;5092438;28;20945;-75
2024/01/25 12:27:37;;;;;;;2.53;0.60;;;19.20;43.60;;;;;;5093024;28;20426;-74
2024/01/25 12:30:04;;;;;;;2.73;0.60;;;19.70;41.40;;;;;;5092101;28;20518;-74
2024/01/25 12:32:31;;;;;;;1.80;0.60;;;19.80;40.40;;;;;;5092786;28;20438;-75
2024/01/25 12:35:00;;;;;;;1.70;0.60;;;19.60;38.80;;;;;;5092670;28;20431;-74
2024/01/25 12:37:28;;;;;;;2.13;0.73;;;19.30;37.60;;;;;;5096861;28;20431;-75
2024/01/25 12:39:55;;;;;;;1.70;0.50;;;19.10;38.40;;;;;;5096514;28;20529;-74
2024/01/25 12:42:23;;;;;;;1.93;0.50;;;18.80;37.80;;;;;;5096740;28;20518;-74
2024/01/25 12:44:54;;;;;;;2.33;0.70;;;18.30;38.30;;;;;;5096705;28;20530;-74
2024/01/25 12:47:20;;;;;;;1.70;0.60;;;17.90;38.80;;;;;;5096357;28;20849;-74
2024/01/25 12:49:48;;;;;;;2.03;0.70;;;17.70;39.70;;;;;;5096372;28;20952;-74